createdAt,value
2019-05-21T00:01:03.268Z,12.30
2019-05-21T00:06:08.378Z,12.20
2019-05-21T00:11:13.418Z,12.10
2019-05-21T00:16:18.466Z,12.10
2019-05-21T00:21:23.503Z,12.00
2019-05-21T00:26:28.523Z,11.90
2019-05-21T00:32:10.031Z,11.80
2019-05-21T00:37:51.748Z,11.80
2019-05-21T00:42:58.032Z,11.70
2019-05-21T00:48:05.758Z,11.60
2019-05-21T00:53:09.824Z,11.50
2019-05-21T00:58:14.870Z,11.50
2019-05-21T01:03:19.928Z,11.40
2019-05-21T01:08:24.980Z,11.40
2019-05-21T01:13:30.028Z,11.20
2019-05-21T01:18:34.996Z,11.20
2019-05-21T01:23:40.051Z,11.20
2019-05-21T01:28:45.103Z,11.20
2019-05-21T01:33:50.136Z,11.20
2019-05-21T01:38:55.224Z,11.10
2019-05-21T01:44:00.235Z,11.00
2019-05-21T01:49:05.353Z,11.00
2019-05-21T01:54:10.404Z,10.90
2019-05-21T01:59:15.460Z,10.80
2019-05-21T02:04:20.511Z,10.70
2019-05-21T02:09:25.639Z,10.70
2019-05-21T02:14:30.604Z,10.70
2019-05-21T02:19:35.575Z,10.70
2019-05-21T02:24:40.547Z,10.60
2019-05-21T02:29:45.546Z,10.50
2019-05-21T02:34:50.520Z,10.40
2019-05-21T02:39:55.462Z,10.40
2019-05-21T02:45:00.571Z,10.30
2019-05-21T02:50:06.626Z,10.30
2019-05-21T02:55:11.728Z,10.40
2019-05-21T03:00:38.810Z,10.20
2019-05-21T03:05:44.264Z,10.20
2019-05-21T03:10:49.712Z,10.20
2019-05-21T03:15:54.755Z,10.20
2019-05-21T03:20:59.828Z,10.30
2019-05-21T03:26:04.926Z,10.30
2019-05-21T03:31:09.919Z,10.30
2019-05-21T03:36:31.603Z,10.30
2019-05-21T03:41:21.549Z,10.30
2019-05-21T03:46:26.836Z,10.40
2019-05-21T03:51:31.952Z,10.40
2019-05-21T03:56:37.070Z,10.40
2019-05-21T04:01:42.296Z,10.50
2019-05-21T04:06:51.767Z,10.70
2019-05-21T04:11:55.047Z,10.80
2019-05-21T04:17:02.199Z,11.00
2019-05-21T04:22:10.253Z,11.20
2019-05-21T04:27:15.488Z,11.40
2019-05-21T04:32:20.467Z,11.60
2019-05-21T04:37:25.452Z,11.80
2019-05-21T04:42:30.504Z,12.10
2019-05-21T04:47:35.658Z,12.40
2019-05-21T04:52:40.786Z,12.70
2019-05-21T04:57:45.843Z,13.10
2019-05-21T05:02:51.915Z,13.30
2019-05-21T05:07:56.871Z,13.60
2019-05-21T05:13:01.946Z,13.90
2019-05-21T05:18:07.004Z,14.20
2019-05-21T05:23:12.095Z,14.50
2019-05-21T05:28:17.086Z,14.80
2019-05-21T05:33:22.219Z,15.10
2019-05-21T05:38:27.256Z,15.40
2019-05-21T05:43:32.251Z,15.60
2019-05-21T05:48:39.029Z,16.00
2019-05-21T05:53:59.147Z,16.30
2019-05-21T05:59:04.456Z,16.60
2019-05-21T06:04:09.431Z,16.90
2019-05-21T06:09:14.416Z,17.20
2019-05-21T06:14:19.540Z,17.40
2019-05-21T06:19:24.661Z,17.70
2019-05-21T06:24:29.717Z,18.10
2019-05-21T06:29:38.944Z,18.30
2019-05-21T06:34:41.471Z,18.60
2019-05-21T06:39:46.557Z,18.80
2019-05-21T06:44:51.523Z,19.10
2019-05-21T06:49:56.646Z,19.40
2019-05-21T06:55:01.738Z,19.80
2019-05-21T07:00:08.688Z,20.20
2019-05-21T07:05:14.176Z,20.40
2019-05-21T07:10:19.348Z,20.50
2019-05-21T07:15:25.127Z,20.90
2019-05-21T07:20:30.283Z,21.30
2019-05-21T07:25:35.395Z,21.60
2019-05-21T07:30:40.417Z,21.60
2019-05-21T07:35:45.423Z,21.80
2019-05-21T07:40:50.549Z,22.00
2019-05-21T07:45:55.555Z,22.10
2019-05-21T07:51:00.760Z,22.10
2019-05-21T07:56:05.838Z,22.30
2019-05-21T08:01:11.026Z,22.90
2019-05-21T08:06:16.072Z,23.40
2019-05-21T08:11:21.172Z,23.00
2019-05-21T08:16:26.285Z,22.90
2019-05-21T08:21:31.365Z,23.30
2019-05-21T08:26:36.531Z,24.00
2019-05-21T08:31:42.685Z,24.50
2019-05-21T08:36:47.771Z,24.90
2019-05-21T08:41:57.147Z,25.10
2019-05-21T08:47:02.260Z,25.30
2019-05-21T08:52:07.459Z,25.70
2019-05-21T08:57:12.627Z,26.10
2019-05-21T09:02:20.756Z,26.20
2019-05-21T09:07:25.882Z,26.30
2019-05-21T09:12:30.991Z,26.60
2019-05-21T09:17:36.936Z,26.70
2019-05-21T09:22:42.263Z,27.10
2019-05-21T09:27:47.385Z,27.40
2019-05-21T09:32:52.411Z,26.80
2019-05-21T09:37:57.459Z,26.00
2019-05-21T09:43:02.500Z,25.20
2019-05-21T09:48:07.683Z,24.70
2019-05-21T09:53:12.808Z,24.80
2019-05-21T09:58:19.497Z,24.90
2019-05-21T10:03:26.192Z,25.10
2019-05-21T10:08:31.208Z,25.30
2019-05-21T10:13:36.251Z,25.80
2019-05-21T10:18:41.407Z,27.20
2019-05-21T10:23:46.583Z,27.80
2019-05-21T10:28:51.664Z,27.40
2019-05-21T10:33:56.676Z,27.00
2019-05-21T10:39:01.867Z,26.20
2019-05-21T10:44:08.910Z,26.00
2019-05-21T10:49:14.024Z,26.40
2019-05-21T10:54:19.176Z,27.10
2019-05-21T10:59:24.407Z,27.20
2019-05-21T11:04:46.041Z,27.20
2019-05-21T11:09:51.121Z,27.30
2019-05-21T11:14:56.215Z,27.00
2019-05-21T11:20:01.329Z,27.80
2019-05-21T11:25:07.513Z,27.60
2019-05-21T11:30:12.632Z,27.40
2019-05-21T11:35:17.931Z,26.90
2019-05-21T11:40:24.117Z,27.00
2019-05-21T11:45:32.698Z,26.80
2019-05-21T11:50:36.169Z,26.40
2019-05-21T11:55:41.258Z,26.60
2019-05-21T12:00:46.271Z,26.90
2019-05-21T12:05:51.407Z,27.00
2019-05-21T12:10:56.471Z,27.70
2019-05-21T12:16:01.662Z,28.40
2019-05-21T12:21:06.856Z,29.10
2019-05-21T12:26:12.042Z,29.50
2019-05-21T12:31:17.155Z,29.10
2019-05-21T12:36:22.274Z,28.90
2019-05-21T12:41:27.686Z,28.40
2019-05-21T12:46:32.740Z,28.30
2019-05-21T12:51:37.765Z,29.10
2019-05-21T12:56:42.909Z,29.00
2019-05-21T13:01:48.054Z,28.80
2019-05-21T13:06:53.232Z,29.70
2019-05-21T13:11:58.379Z,29.80
2019-05-21T13:17:04.486Z,29.80
2019-05-21T13:22:09.602Z,30.00
2019-05-21T13:27:14.589Z,29.60
2019-05-21T13:32:19.645Z,30.20
2019-05-21T13:37:24.857Z,30.50
2019-05-21T13:42:30.000Z,30.40
2019-05-21T13:47:35.091Z,30.30
2019-05-21T13:52:40.297Z,30.20
2019-05-21T13:57:45.367Z,29.40
2019-05-21T14:02:51.703Z,29.50
2019-05-21T14:07:56.915Z,29.60
2019-05-21T14:13:02.357Z,29.40
2019-05-21T14:18:07.556Z,29.70
2019-05-21T14:23:12.600Z,30.50
2019-05-21T14:28:17.727Z,30.10
2019-05-21T14:33:22.844Z,30.40
2019-05-21T14:38:27.971Z,30.40
2019-05-21T14:43:33.096Z,29.60
2019-05-21T14:48:38.045Z,29.00
2019-05-21T14:53:43.054Z,28.80
2019-05-21T14:58:48.130Z,28.70
2019-05-21T15:03:53.162Z,28.50
2019-05-21T15:08:58.176Z,28.30
2019-05-21T15:14:03.308Z,27.80
2019-05-21T15:19:08.499Z,27.70
2019-05-21T15:24:14.207Z,27.60
2019-05-21T15:29:19.270Z,27.30
2019-05-21T15:34:24.217Z,26.80
2019-05-21T15:39:29.260Z,26.40
2019-05-21T15:44:34.299Z,26.00
2019-05-21T15:49:39.302Z,25.70
2019-05-21T15:54:45.195Z,26.00
2019-05-21T15:59:50.255Z,26.20
2019-05-21T16:04:55.251Z,26.00
2019-05-21T16:10:01.307Z,25.90
2019-05-21T16:15:07.475Z,25.80
2019-05-21T16:20:13.067Z,25.40
2019-05-21T16:25:18.348Z,25.10
2019-05-21T16:30:23.575Z,24.90
2019-05-21T16:35:29.139Z,24.80
2019-05-21T16:40:34.307Z,24.60
2019-05-21T16:45:40.663Z,24.30
2019-05-21T16:50:45.640Z,24.20
2019-05-21T16:55:50.678Z,24.10
2019-05-21T17:00:55.732Z,23.90
2019-05-21T17:06:00.963Z,23.80
2019-05-21T17:11:06.162Z,23.50
2019-05-21T17:16:11.276Z,23.30
2019-05-21T17:21:16.393Z,23.00
2019-05-21T17:26:21.432Z,22.80
2019-05-21T17:31:26.521Z,22.80
2019-05-21T17:36:31.544Z,22.70
2019-05-21T17:41:36.739Z,22.70
2019-05-21T17:46:41.796Z,22.40
2019-05-21T17:51:47.050Z,22.10
2019-05-21T17:56:52.158Z,21.90
2019-05-21T18:01:57.510Z,21.60
2019-05-21T18:07:03.332Z,21.50
2019-05-21T18:12:10.740Z,21.20
2019-05-21T18:17:18.433Z,20.70
2019-05-21T18:22:24.723Z,20.10
2019-05-21T18:27:30.460Z,19.50
2019-05-21T18:32:35.545Z,19.40
2019-05-21T18:37:40.778Z,19.30
2019-05-21T18:42:45.968Z,19.30
2019-05-21T18:47:51.059Z,18.90
2019-05-21T18:52:56.215Z,18.50
2019-05-21T18:58:01.299Z,18.40
2019-05-21T19:03:06.546Z,18.20
2019-05-21T19:08:11.734Z,18.10
2019-05-21T19:13:16.995Z,17.90
2019-05-21T19:18:22.017Z,17.90
2019-05-21T19:23:27.040Z,17.90
2019-05-21T19:28:32.095Z,17.80
2019-05-21T19:33:37.180Z,17.80
2019-05-21T19:38:42.243Z,17.80
2019-05-21T19:43:47.351Z,17.80
2019-05-21T19:48:52.315Z,17.80
2019-05-21T19:53:57.510Z,17.80
2019-05-21T19:59:02.639Z,17.70
2019-05-21T20:04:09.815Z,17.60
2019-05-21T20:09:19.685Z,17.50
2019-05-21T20:14:24.872Z,17.40
2019-05-21T20:19:31.269Z,17.30
2019-05-21T20:24:36.403Z,17.10
2019-05-21T20:29:41.773Z,17.10
2019-05-21T20:34:46.885Z,17.00
2019-05-21T20:39:52.545Z,17.00
2019-05-21T20:44:57.721Z,17.00
2019-05-21T20:50:04.444Z,17.00
2019-05-21T20:55:10.273Z,17.00
2019-05-21T21:00:23.379Z,17.00
2019-05-21T21:05:28.706Z,16.90
2019-05-21T21:10:33.811Z,16.80
2019-05-21T21:15:39.257Z,16.80
2019-05-21T21:20:44.429Z,16.70
2019-05-21T21:25:49.531Z,16.50
2019-05-21T21:30:56.163Z,16.40
2019-05-21T21:36:01.258Z,16.40
2019-05-21T21:41:07.516Z,16.30
2019-05-21T21:46:12.600Z,16.30
2019-05-21T21:51:18.585Z,16.20
2019-05-21T21:56:23.629Z,16.20
2019-05-21T22:01:36.118Z,16.00
2019-05-21T22:06:42.855Z,16.00
2019-05-21T22:11:48.148Z,16.00
2019-05-21T22:16:53.773Z,15.90
2019-05-21T22:21:58.824Z,15.90
2019-05-21T22:27:04.001Z,15.90
2019-05-21T22:32:09.156Z,15.80
2019-05-21T22:37:16.527Z,15.90
2019-05-21T22:42:22.684Z,15.70
2019-05-21T22:47:28.079Z,15.60
2019-05-21T22:52:33.135Z,15.40
2019-05-21T22:57:38.153Z,15.30
2019-05-21T23:02:43.543Z,15.30
2019-05-21T23:07:48.459Z,15.20
2019-05-21T23:12:53.675Z,15.10
2019-05-21T23:17:58.866Z,15.00
2019-05-21T23:23:06.168Z,14.90
2019-05-21T23:28:11.255Z,14.90
2019-05-21T23:33:17.851Z,14.80
2019-05-21T23:38:23.578Z,14.70
2019-05-21T23:43:29.512Z,14.80
2019-05-21T23:48:35.513Z,14.90
2019-05-21T23:53:40.713Z,15.00
2019-05-21T23:58:48.031Z,15.00
